Time;durP1;ratioP1;P1;durP2;ratioP2;P2;SDS_P1;SDS_P2;PMS_P1;PMS_P2;Temp;Humidity;BMP_temperature;BMP_pressure;BME280_temperature;BME280_humidity;BME280_pressure;Samples;Min_cycle;Max_cycle;Signal;HPM_P1;HPM_P2
2022/06/25 00:02:12;;;;;;;1.90;1.80;;;24.30;52.70;;;;;;5046050;28;20981;-86
2022/06/25 00:07:25;;;;;;;1.90;1.70;;;24.10;53.00;;;;;;5063372;28;20586;-86
2022/06/25 00:09:52;;;;;;;1.70;1.60;;;24.20;52.90;;;;;;5047605;28;20445;-85
2022/06/25 00:15:07;;;;;;;1.80;1.70;;;24.20;52.70;;;;;;5043198;28;20606;-86
2022/06/25 00:17:34;;;;;;;2.10;1.93;;;24.30;52.70;;;;;;5046088;28;20465;-86
2022/06/25 00:20:01;;;;;;;2.03;1.60;;;24.30;52.70;;;;;;5062178;28;20472;-88
2022/06/25 00:22:29;;;;;;;2.10;1.90;;;24.30;52.60;;;;;;5039384;28;20483;-86
2022/06/25 00:24:57;;;;;;;2.60;2.00;;;24.30;52.50;;;;;;5020973;28;20456;-85
2022/06/25 00:27:24;;;;;;;3.00;2.10;;;24.30;52.50;;;;;;5035753;28;20453;-87
2022/06/25 00:29:51;;;;;;;2.60;1.90;;;24.30;52.40;;;;;;5033529;28;20453;-88
2022/06/25 00:32:19;;;;;;;2.30;2.10;;;24.20;52.60;;;;;;5019940;28;20820;-89
2022/06/25 00:34:46;;;;;;;2.07;1.97;;;24.20;52.60;;;;;;5051497;28;20457;-88
2022/06/25 00:37:15;;;;;;;2.10;2.00;;;24.10;52.80;;;;;;5053089;28;20514;-85
2022/06/25 00:39:44;;;;;;;3.80;1.80;;;24.10;52.90;;;;;;5065162;28;20465;-86
2022/06/25 00:42:12;;;;;;;3.93;2.00;;;24.10;52.90;;;;;;5050006;28;20461;-86
2022/06/25 00:44:39;;;;;;;2.10;2.00;;;24.00;52.90;;;;;;5068273;28;20451;-85
2022/06/25 00:47:09;;;;;;;2.00;1.90;;;23.90;53.30;;;;;;5051869;28;20450;-86
2022/06/25 00:49:36;;;;;;;3.07;2.17;;;23.80;53.30;;;;;;5051059;28;20456;-89
2022/06/25 00:52:07;;;;;;;2.13;2.03;;;23.70;53.70;;;;;;5051475;28;21223;-88
2022/06/25 00:54:37;;;;;;;2.53;2.30;;;23.60;53.90;;;;;;5050074;28;21192;-85
2022/06/25 00:57:08;;;;;;;3.83;2.33;;;23.10;55.10;;;;;;5051760;28;20493;-86
2022/06/25 00:59:40;;;;;;;2.33;2.13;;;22.80;55.90;;;;;;5066596;28;20456;-90
2022/06/25 01:02:07;;;;;;;4.53;2.50;;;22.80;56.10;;;;;;5042695;28;20488;-86
2022/06/25 01:04:34;;;;;;;2.43;2.23;;;22.80;56.30;;;;;;5050312;28;20515;-86
2022/06/25 01:07:01;;;;;;;2.33;2.07;;;22.70;56.40;;;;;;5053174;28;20436;-85
2022/06/25 01:09:28;;;;;;;2.80;2.60;;;22.80;56.40;;;;;;5053125;28;20523;-85
2022/06/25 01:11:55;;;;;;;2.10;2.00;;;22.50;56.70;;;;;;5055372;28;20526;-85
2022/06/25 01:14:23;;;;;;;2.60;2.40;;;22.60;56.70;;;;;;5036257;28;20944;-86
2022/06/25 01:16:51;;;;;;;2.30;2.20;;;22.80;56.50;;;;;;5055369;28;20480;-85
2022/06/25 01:19:18;;;;;;;4.13;3.23;;;22.90;56.30;;;;;;5041266;28;20460;-87
2022/06/25 01:21:45;;;;;;;3.10;2.90;;;23.00;55.90;;;;;;5051205;28;20568;-86
2022/06/25 01:24:13;;;;;;;3.03;2.80;;;23.20;55.70;;;;;;5049095;28;20441;-88
2022/06/25 01:26:42;;;;;;;2.40;2.30;;;23.20;55.40;;;;;;5052048;28;20511;-86
2022/06/25 01:29:10;;;;;;;2.80;2.60;;;23.10;55.40;;;;;;5064216;28;20445;-85
2022/06/25 01:31:37;;;;;;;3.03;2.73;;;23.00;55.90;;;;;;5036526;28;21092;-86
2022/06/25 01:34:05;;;;;;;2.57;2.37;;;23.10;55.50;;;;;;5040548;28;20458;-86
2022/06/25 01:36:32;;;;;;;2.60;2.40;;;23.20;55.40;;;;;;5059339;28;20457;-89
2022/06/25 01:38:59;;;;;;;3.00;2.80;;;23.10;55.80;;;;;;5050883;28;21079;-86
2022/06/25 01:41:30;;;;;;;3.27;3.00;;;22.70;56.60;;;;;;5050153;28;20575;-87
2022/06/25 01:43:57;;;;;;;3.00;2.80;;;22.80;56.70;;;;;;5065759;28;21206;-87
2022/06/25 01:46:25;;;;;;;2.93;2.73;;;22.90;56.30;;;;;;5040599;28;20913;-86
2022/06/25 01:48:52;;;;;;;2.80;2.50;;;22.70;56.70;;;;;;5064899;28;20540;-86
2022/06/25 01:51:20;;;;;;;2.33;2.17;;;22.70;56.70;;;;;;5034809;28;22403;-86
2022/06/25 01:53:50;;;;;;;3.20;3.00;;;22.90;56.10;;;;;;5049080;28;21049;-86
2022/06/25 01:56:17;;;;;;;2.90;2.70;;;22.80;56.50;;;;;;5039590;28;20436;-86
2022/06/25 01:58:45;;;;;;;2.63;2.37;;;22.90;55.80;;;;;;5046209;28;21000;-86
2022/06/25 02:01:12;;;;;;;2.60;2.40;;;23.00;55.70;;;;;;5046325;28;20492;-88
2022/06/25 02:03:40;;;;;;;2.60;2.40;;;23.10;55.40;;;;;;5048228;28;20511;-86
2022/06/25 02:06:07;;;;;;;2.60;2.40;;;23.20;55.30;;;;;;5045901;28;20915;-87
2022/06/25 02:08:36;;;;;;;4.40;2.57;;;23.30;55.10;;;;;;5040710;28;20602;-87
2022/06/25 02:11:05;;;;;;;3.00;2.80;;;23.30;55.00;;;;;;5046169;28;20501;-86
2022/06/25 02:13:33;;;;;;;3.50;2.67;;;23.30;55.30;;;;;;5030374;28;20445;-87
2022/06/25 02:16:03;;;;;;;2.30;2.20;;;23.30;55.30;;;;;;5049121;28;21018;-87
2022/06/25 02:18:30;;;;;;;2.77;2.57;;;23.40;55.40;;;;;;5048351;28;20515;-88
2022/06/25 02:20:58;;;;;;;2.87;2.67;;;23.50;54.90;;;;;;5046699;28;20477;-89
2022/06/25 02:23:25;;;;;;;2.23;2.13;;;23.50;55.00;;;;;;5033530;28;20539;-88
2022/06/25 02:25:52;;;;;;;2.93;2.70;;;23.50;54.80;;;;;;5054766;28;20851;-88
2022/06/25 02:28:20;;;;;;;2.50;2.30;;;23.60;54.70;;;;;;5063470;28;21960;-89
2022/06/25 02:30:47;;;;;;;3.13;2.93;;;23.60;54.70;;;;;;5050354;28;21028;-86
2022/06/25 02:33:16;;;;;;;3.00;2.70;;;23.60;54.60;;;;;;5034336;28;21018;-86
2022/06/25 02:35:45;;;;;;;3.03;2.83;;;23.60;54.30;;;;;;5047040;28;20460;-86
2022/06/25 02:38:14;;;;;;;2.70;2.40;;;23.70;53.90;;;;;;5028166;28;20469;-86
2022/06/25 02:40:43;;;;;;;3.20;2.70;;;23.70;53.90;;;;;;5031729;28;21043;-86
2022/06/25 02:43:10;;;;;;;2.53;2.27;;;23.60;53.80;;;;;;5038813;28;20463;-87
2022/06/25 02:45:42;;;;;;;2.90;2.60;;;23.60;53.80;;;;;;5063911;28;20810;-86
2022/06/25 02:48:11;;;;;;;2.47;2.27;;;23.60;53.90;;;;;;5038077;28;20456;-86
2022/06/25 02:50:39;;;;;;;2.60;2.50;;;23.60;54.00;;;;;;5030783;28;20469;-86
2022/06/25 02:53:08;;;;;;;2.27;2.17;;;23.60;54.10;;;;;;5046519;28;20453;-86
2022/06/25 03:01:06;;;;;;;3.30;3.00;;;23.70;54.10;;;;;;5033863;28;20636;-87
2022/06/25 03:03:34;;;;;;;4.17;2.87;;;23.60;54.30;;;;;;5047322;28;21034;-87
2022/06/25 03:06:03;;;;;;;6.00;3.50;;;23.60;54.50;;;;;;5017137;28;20445;-90
2022/06/25 03:08:30;;;;;;;2.60;2.40;;;23.60;54.30;;;;;;5049864;28;20448;-89
2022/06/25 03:10:57;;;;;;;2.57;2.37;;;23.60;54.00;;;;;;5066741;28;20561;-86
2022/06/25 03:13:23;;;;;;;3.00;2.60;;;23.60;53.80;;;;;;5035919;28;20455;-86
2022/06/25 03:15:50;;;;;;;4.87;2.67;;;23.60;53.80;;;;;;5056201;28;20446;-86
2022/06/25 03:18:18;;;;;;;3.30;2.77;;;23.50;53.80;;;;;;5033525;28;20480;-87
2022/06/25 03:21:07;;;;;;;3.80;2.83;;;23.50;53.90;;;;;;5047624;28;20935;-85
2022/06/25 03:23:36;;;;;;;3.07;2.60;;;23.50;53.80;;;;;;5033626;28;20823;-90
2022/06/25 03:26:03;;;;;;;3.10;2.90;;;23.50;53.90;;;;;;5057328;28;20464;-86
2022/06/25 03:28:30;;;;;;;3.03;2.83;;;23.50;54.10;;;;;;5047071;28;20452;-87
2022/06/25 03:30:59;;;;;;;3.10;2.80;;;23.50;54.10;;;;;;5038232;28;20837;-89
2022/06/25 03:33:26;;;;;;;2.93;2.70;;;23.50;53.90;;;;;;5041105;28;20569;-86
2022/06/25 03:36:07;;;;;;;3.03;2.83;;;23.50;53.90;;;;;;5048706;28;20445;-86
2022/06/25 03:38:41;;;;;;;2.60;2.40;;;23.40;53.80;;;;;;5031997;28;20476;-86
2022/06/25 03:43:54;;;;;;;2.50;2.30;;;23.30;54.40;;;;;;5049263;28;21127;-86
2022/06/25 03:46:22;;;;;;;2.73;2.37;;;23.30;54.50;;;;;;5050271;28;20452;-88
2022/06/25 03:48:50;;;;;;;3.40;3.20;;;23.30;54.60;;;;;;5040101;28;20456;-86
2022/06/25 03:51:33;;;;;;;3.87;3.57;;;23.30;54.60;;;;;;5066982;28;20480;-88
2022/06/25 03:54:00;;;;;;;3.53;3.20;;;23.30;54.70;;;;;;5045664;28;21019;-85
2022/06/25 03:56:28;;;;;;;3.47;3.27;;;23.30;54.80;;;;;;5042002;28;20996;-86
2022/06/25 03:58:57;;;;;;;3.23;3.00;;;23.30;54.60;;;;;;5038716;28;20464;-86
2022/06/25 04:01:26;;;;;;;2.80;2.60;;;23.30;54.60;;;;;;5045136;28;20870;-87
2022/06/25 04:03:53;;;;;;;3.50;2.80;;;23.30;54.50;;;;;;5051891;28;20860;-85
2022/06/25 04:06:20;;;;;;;3.00;2.77;;;23.30;54.70;;;;;;5039837;28;20555;-87
2022/06/25 04:08:50;;;;;;;3.10;2.90;;;23.30;54.80;;;;;;5039755;28;20442;-90
2022/06/25 04:11:21;;;;;;;3.07;2.87;;;23.30;55.00;;;;;;5039534;28;20910;-86
2022/06/25 04:13:54;;;;;;;4.47;3.43;;;23.30;55.20;;;;;;5053086;28;20453;-87
2022/06/25 04:16:23;;;;;;;4.40;3.13;;;23.30;55.30;;;;;;5060570;28;20449;-87
2022/06/25 04:18:50;;;;;;;3.13;2.80;;;23.30;55.20;;;;;;5055342;28;20473;-89
2022/06/25 04:21:21;;;;;;;3.90;2.60;;;23.30;55.10;;;;;;5055942;28;20551;-86
2022/06/25 04:23:49;;;;;;;2.97;2.77;;;23.30;55.00;;;;;;5054149;28;20584;-85
2022/06/25 04:26:17;;;;;;;3.93;3.50;;;23.40;55.00;;;;;;5043891;28;20452;-87
2022/06/25 04:31:33;;;;;;;2.57;2.37;;;23.50;54.80;;;;;;5070357;28;20500;-87
2022/06/25 04:34:01;;;;;;;2.70;2.50;;;23.50;55.10;;;;;;5043336;28;20449;-85
2022/06/25 04:36:28;;;;;;;3.50;3.20;;;23.50;55.10;;;;;;5051785;28;20456;-86
2022/06/25 04:39:02;;;;;;;6.73;4.20;;;23.50;55.20;;;;;;5052735;28;21559;-86
2022/06/25 04:41:30;;;;;;;3.07;2.87;;;23.50;55.30;;;;;;5040723;28;21012;-87
2022/06/25 04:44:01;;;;;;;3.37;3.07;;;23.50;55.40;;;;;;5043591;28;20452;-88
2022/06/25 04:46:29;;;;;;;4.43;2.90;;;23.50;55.50;;;;;;5069394;28;20453;-87
2022/06/25 04:48:56;;;;;;;3.33;3.00;;;23.50;55.70;;;;;;5068122;28;20523;-87
2022/06/25 04:51:25;;;;;;;4.40;3.70;;;23.50;55.60;;;;;;5044498;28;20479;-90
2022/06/25 04:53:59;;;;;;;6.53;3.57;;;23.50;55.60;;;;;;5058930;28;20449;-88
2022/06/25 04:56:39;;;;;;;3.77;3.50;;;23.60;55.60;;;;;;5036151;28;20454;-87
2022/06/25 04:59:06;;;;;;;3.03;2.83;;;23.60;55.50;;;;;;5027281;28;20461;-86
2022/06/25 05:02:06;;;;;;;3.63;3.40;;;23.60;55.50;;;;;;5051035;28;20482;-87
2022/06/25 05:04:47;;;;;;;3.40;3.10;;;23.60;55.60;;;;;;5059915;28;20512;-86
2022/06/25 05:07:14;;;;;;;4.23;3.30;;;23.50;56.10;;;;;;5051624;28;20453;-88
2022/06/25 05:09:41;;;;;;;4.97;3.67;;;23.50;55.80;;;;;;5054637;28;20484;-86
2022/06/25 05:13:11;;;;;;;3.70;3.40;;;23.50;56.10;;;;;;5035681;28;21186;-87
2022/06/25 05:14:59;;;;;;;3.60;3.30;;;23.50;55.70;;;;;;5042611;28;20453;-87
2022/06/25 05:17:26;;;;;;;3.73;3.50;;;23.60;55.80;;;;;;5034863;28;20456;-86
2022/06/25 05:19:53;;;;;;;3.90;3.60;;;23.60;55.90;;;;;;5056183;28;20939;-86
2022/06/25 05:22:20;;;;;;;4.57;3.60;;;23.50;56.10;;;;;;5057166;28;20491;-88
2022/06/25 05:24:47;;;;;;;4.07;3.77;;;23.60;56.10;;;;;;5067167;28;20449;-86
2022/06/25 05:27:16;;;;;;;3.33;3.13;;;23.60;56.10;;;;;;5060860;28;21144;-89
2022/06/25 05:29:43;;;;;;;3.43;3.23;;;23.50;56.50;;;;;;5056365;28;20452;-87
2022/06/25 05:32:10;;;;;;;3.17;2.97;;;23.30;57.00;;;;;;5059218;28;20473;-86
2022/06/25 05:34:37;;;;;;;5.57;3.40;;;23.20;57.20;;;;;;5041876;28;20468;-87
2022/06/25 05:37:04;;;;;;;3.30;3.00;;;23.30;57.50;;;;;;5032517;28;20453;-88
2022/06/25 05:39:31;;;;;;;3.37;3.03;;;23.20;57.60;;;;;;5031531;28;20472;-86
2022/06/25 05:41:58;;;;;;;4.73;3.20;;;23.30;57.60;;;;;;5051404;28;20481;-87
2022/06/25 05:44:26;;;;;;;7.10;3.30;;;23.40;57.10;;;;;;5049289;28;20456;-90
2022/06/25 05:46:53;;;;;;;3.13;2.93;;;23.30;57.30;;;;;;5051966;28;20966;-88
2022/06/25 05:49:20;;;;;;;3.23;3.03;;;23.30;57.70;;;;;;5043271;28;20468;-88
2022/06/25 05:51:47;;;;;;;3.20;2.97;;;23.30;57.50;;;;;;5051534;28;20485;-86
2022/06/25 05:54:14;;;;;;;3.53;3.33;;;23.50;57.30;;;;;;5048839;28;20945;-87
2022/06/25 05:56:41;;;;;;;3.63;3.13;;;23.70;57.00;;;;;;5065714;28;20441;-86
2022/06/25 05:59:08;;;;;;;3.33;3.13;;;23.80;56.60;;;;;;5053271;28;20600;-86
2022/06/25 06:01:36;;;;;;;2.97;2.70;;;23.90;56.30;;;;;;5053296;28;20477;-88
2022/06/25 06:04:05;;;;;;;3.00;2.80;;;24.00;56.30;;;;;;5048626;28;20506;-86
2022/06/25 06:06:32;;;;;;;3.13;2.93;;;23.90;56.30;;;;;;5047761;28;20457;-85
2022/06/25 06:08:59;;;;;;;3.50;3.30;;;23.80;56.40;;;;;;5051624;28;20437;-86
2022/06/25 06:11:26;;;;;;;3.30;2.70;;;23.90;56.10;;;;;;5049678;28;20465;-85
2022/06/25 06:13:53;;;;;;;3.50;2.43;;;24.20;55.80;;;;;;5033205;28;20486;-87
2022/06/25 06:16:20;;;;;;;3.60;3.03;;;24.10;56.00;;;;;;5050184;28;20460;-85
2022/06/25 06:18:48;;;;;;;2.70;2.50;;;24.20;55.70;;;;;;5034571;28;20469;-85
2022/06/25 06:21:15;;;;;;;3.17;2.97;;;24.50;55.30;;;;;;5045881;28;20476;-89
2022/06/25 06:23:42;;;;;;;3.23;3.03;;;24.80;54.70;;;;;;5051698;28;20914;-86
2022/06/25 06:26:09;;;;;;;2.60;2.40;;;25.00;54.10;;;;;;5046420;28;20460;-87
2022/06/25 06:28:36;;;;;;;3.00;2.80;;;25.30;53.60;;;;;;5050999;28;20460;-89
2022/06/25 06:31:02;;;;;;;2.70;2.50;;;25.40;53.30;;;;;;5048169;28;20975;-86
2022/06/25 06:33:29;;;;;;;4.83;2.77;;;25.10;53.20;;;;;;5048821;28;20460;-85
2022/06/25 06:35:58;;;;;;;3.50;2.60;;;25.10;53.40;;;;;;5048897;28;20457;-86
2022/06/25 06:38:24;;;;;;;2.77;2.50;;;25.20;53.50;;;;;;5047102;28;21865;-85
2022/06/25 06:40:51;;;;;;;2.90;2.37;;;25.50;52.80;;;;;;5049500;28;20481;-86
2022/06/25 06:43:18;;;;;;;2.90;2.70;;;25.70;52.30;;;;;;5048248;28;20445;-87
2022/06/25 06:45:45;;;;;;;2.80;2.57;;;25.90;52.40;;;;;;5048612;28;20994;-89
2022/06/25 06:48:12;;;;;;;2.73;2.53;;;26.10;51.80;;;;;;5048726;28;20438;-88
2022/06/25 06:50:39;;;;;;;3.10;2.90;;;26.10;50.80;;;;;;5046178;28;20471;-85
2022/06/25 06:53:08;;;;;;;2.57;2.40;;;26.30;51.10;;;;;;5046328;28;20823;-87
2022/06/25 06:55:35;;;;;;;3.00;2.80;;;26.40;50.80;;;;;;5051046;28;20460;-90
2022/06/25 06:58:02;;;;;;;2.83;2.73;;;26.50;50.50;;;;;;5050155;28;20445;-86
2022/06/25 07:00:29;;;;;;;2.70;2.50;;;26.30;50.70;;;;;;5047631;28;20492;-86
2022/06/25 07:02:56;;;;;;;3.37;3.03;;;26.30;51.00;;;;;;5050573;28;20960;-88
2022/06/25 07:05:23;;;;;;;2.93;2.67;;;26.30;50.60;;;;;;5062026;28;20453;-86
2022/06/25 07:07:50;;;;;;;3.10;2.90;;;26.20;50.40;;;;;;5064763;28;21007;-89
2022/06/25 07:10:20;;;;;;;6.03;2.63;;;26.10;50.90;;;;;;5046856;28;20444;-87
2022/06/25 07:12:47;;;;;;;2.83;2.67;;;26.30;50.70;;;;;;5047527;28;20699;-85
2022/06/25 07:15:14;;;;;;;3.83;3.00;;;26.20;50.90;;;;;;5048366;28;20457;-88
2022/06/25 07:17:41;;;;;;;2.70;2.50;;;26.40;50.90;;;;;;5046495;28;20469;-84
2022/06/25 07:20:10;;;;;;;2.43;2.23;;;26.40;50.70;;;;;;5033703;28;20488;-88
2022/06/25 07:22:37;;;;;;;2.60;2.40;;;26.50;50.40;;;;;;5044247;28;20437;-86
2022/06/25 07:25:05;;;;;;;2.73;2.53;;;26.60;49.60;;;;;;5051583;28;20473;-88
2022/06/25 07:27:33;;;;;;;3.17;2.60;;;26.80;50.00;;;;;;5050723;28;20449;-85
2022/06/25 07:30:00;;;;;;;8.87;2.80;;;26.90;49.50;;;;;;5044901;28;20452;-85
2022/06/25 07:32:27;;;;;;;4.37;2.83;;;26.80;49.60;;;;;;5047748;28;20591;-84
2022/06/25 07:34:54;;;;;;;2.37;2.17;;;26.80;49.60;;;;;;5048533;28;20486;-85
2022/06/25 07:37:21;;;;;;;2.37;2.27;;;26.90;49.10;;;;;;5049321;28;20445;-86
2022/06/25 07:39:48;;;;;;;2.50;2.30;;;27.00;49.20;;;;;;5058031;28;20484;-85
2022/06/25 07:42:15;;;;;;;2.60;2.40;;;27.10;49.40;;;;;;5046394;28;20472;-88
2022/06/25 07:44:43;;;;;;;2.60;2.47;;;27.30;48.80;;;;;;5043919;28;20461;-87
2022/06/25 07:47:10;;;;;;;2.90;2.70;;;27.10;47.50;;;;;;5046874;28;20453;-84
2022/06/25 07:52:18;;;;;;;2.87;2.67;;;26.70;49.50;;;;;;5055195;28;20485;-86
2022/06/25 07:54:45;;;;;;;3.70;3.40;;;27.00;49.30;;;;;;5046503;28;20552;-86
2022/06/25 07:57:12;;;;;;;2.70;2.50;;;27.40;48.40;;;;;;5031876;28;20859;-87
2022/06/25 07:59:39;;;;;;;3.13;2.93;;;27.60;48.10;;;;;;5044996;28;20468;-85
2022/06/25 08:02:07;;;;;;;3.33;2.90;;;27.50;46.30;;;;;;5044865;28;20588;-88
2022/06/25 08:04:34;;;;;;;2.90;2.70;;;27.40;47.60;;;;;;5044575;28;20460;-87
2022/06/25 08:07:01;;;;;;;3.30;3.00;;;27.50;47.70;;;;;;5047719;28;21044;-86
2022/06/25 08:09:28;;;;;;;4.20;2.73;;;27.50;47.40;;;;;;5047682;28;20456;-88
2022/06/25 08:11:55;;;;;;;2.83;2.63;;;27.60;47.50;;;;;;5054355;28;20466;-88
2022/06/25 08:14:22;;;;;;;3.20;2.90;;;27.50;47.70;;;;;;5042984;28;20522;-86
2022/06/25 08:16:49;;;;;;;2.60;2.50;;;27.80;47.20;;;;;;5045122;28;20520;-86
2022/06/25 08:19:18;;;;;;;3.03;2.73;;;27.70;46.90;;;;;;5045093;28;20476;-84
2022/06/25 08:21:45;;;;;;;5.13;2.73;;;27.70;46.70;;;;;;5060474;28;21065;-85
2022/06/25 08:24:12;;;;;;;3.00;2.80;;;28.10;46.40;;;;;;5044275;28;21312;-84
2022/06/25 08:26:39;;;;;;;2.77;2.40;;;28.20;45.20;;;;;;5045540;28;20450;-86
2022/06/25 08:29:05;;;;;;;2.83;2.50;;;28.30;44.80;;;;;;5029102;28;20971;-85
2022/06/25 08:31:32;;;;;;;3.13;2.73;;;28.40;44.90;;;;;;5045749;28;20477;-86
2022/06/25 08:33:59;;;;;;;4.53;2.60;;;28.30;45.00;;;;;;5048469;28;20449;-85
2022/06/25 08:36:28;;;;;;;5.10;2.90;;;28.30;45.30;;;;;;5029255;28;20476;-86
2022/06/25 08:38:55;;;;;;;4.07;2.50;;;28.40;45.60;;;;;;5045759;28;20476;-85
2022/06/25 08:41:22;;;;;;;3.20;2.90;;;28.80;44.60;;;;;;5046471;28;21186;-86
2022/06/25 08:43:49;;;;;;;3.50;3.10;;;29.00;44.10;;;;;;5049390;28;20453;-87
2022/06/25 08:46:16;;;;;;;4.50;2.80;;;29.10;43.40;;;;;;5050583;28;20488;-86
2022/06/25 08:48:49;;;;;;;2.83;2.60;;;28.90;43.40;;;;;;5050016;28;20552;-86
2022/06/25 08:51:19;;;;;;;2.80;2.60;;;28.60;43.40;;;;;;5048481;28;20836;-87
2022/06/25 08:53:49;;;;;;;2.57;2.43;;;28.40;44.20;;;;;;5049330;28;20464;-88
2022/06/25 08:56:17;;;;;;;2.80;2.60;;;28.30;44.70;;;;;;5049484;28;20456;-86
2022/06/25 08:58:44;;;;;;;3.10;2.80;;;28.40;44.70;;;;;;5067108;28;20957;-86
2022/06/25 09:01:12;;;;;;;3.83;2.97;;;28.40;44.60;;;;;;5049436;28;20486;-86
2022/06/25 09:03:39;;;;;;;3.20;2.90;;;28.20;45.20;;;;;;5050194;28;20548;-86
2022/06/25 09:06:13;;;;;;;3.10;2.80;;;28.50;46.30;;;;;;5049843;28;21004;-85
2022/06/25 09:08:42;;;;;;;2.97;2.73;;;28.90;45.10;;;;;;5049344;28;20802;-86
2022/06/25 09:11:10;;;;;;;2.93;2.73;;;29.20;44.20;;;;;;5049662;28;20972;-88
2022/06/25 09:13:38;;;;;;;4.17;2.30;;;29.40;43.10;;;;;;5052275;28;20460;-87
2022/06/25 09:16:05;;;;;;;6.23;2.67;;;29.60;43.30;;;;;;5064322;28;20874;-87
2022/06/25 09:18:34;;;;;;;6.00;2.97;;;29.60;42.00;;;;;;5048372;28;20465;-86
2022/06/25 09:21:03;;;;;;;2.83;2.30;;;29.50;41.10;;;;;;5048438;28;20491;-85
2022/06/25 09:23:31;;;;;;;2.60;2.47;;;29.90;41.30;;;;;;5047622;28;21126;-87
2022/06/25 09:26:03;;;;;;;2.87;2.67;;;29.90;41.60;;;;;;5064104;28;20455;-86
2022/06/25 09:28:32;;;;;;;2.70;2.50;;;30.10;40.90;;;;;;5039517;28;20993;-87
2022/06/25 09:30:59;;;;;;;2.47;1.90;;;30.20;39.70;;;;;;5046555;28;21004;-86
2022/06/25 09:33:27;;;;;;;3.33;3.10;;;30.40;40.10;;;;;;5048165;28;20602;-86
2022/06/25 09:35:55;;;;;;;4.03;2.60;;;30.40;39.70;;;;;;5045945;28;20826;-86
2022/06/25 09:38:24;;;;;;;5.53;2.83;;;30.40;39.70;;;;;;5050494;28;20457;-86
2022/06/25 09:40:53;;;;;;;2.80;2.60;;;30.40;39.50;;;;;;5053367;28;20489;-85
2022/06/25 09:43:21;;;;;;;2.80;2.60;;;30.30;39.40;;;;;;5048420;28;20472;-87
2022/06/25 09:45:52;;;;;;;3.10;2.20;;;30.30;38.90;;;;;;5056591;28;20458;-85
2022/06/25 09:48:20;;;;;;;2.63;2.43;;;30.70;38.30;;;;;;5046258;28;21026;-85
2022/06/25 09:51:07;;;;;;;2.60;2.50;;;31.00;39.30;;;;;;5047964;28;20961;-86
2022/06/25 09:53:35;;;;;;;2.23;2.13;;;31.20;38.80;;;;;;5048784;28;20456;-86
2022/06/25 09:56:05;;;;;;;2.60;2.37;;;31.30;38.70;;;;;;5060445;28;21186;-86
2022/06/25 09:58:32;;;;;;;3.23;2.73;;;31.50;38.60;;;;;;5033916;28;20528;-87
2022/06/25 10:01:02;;;;;;;2.90;2.70;;;31.60;37.80;;;;;;5047114;28;20687;-86
2022/06/25 10:03:31;;;;;;;2.43;2.33;;;31.60;37.20;;;;;;5052391;28;20456;-88
2022/06/25 10:06:00;;;;;;;3.30;2.00;;;31.80;37.00;;;;;;5062722;28;20480;-86
2022/06/25 10:08:30;;;;;;;2.73;2.30;;;32.00;37.30;;;;;;5064623;28;21111;-88
2022/06/25 10:10:57;;;;;;;4.10;2.30;;;32.10;35.00;;;;;;5046009;28;20492;-88
2022/06/25 10:13:25;;;;;;;3.33;3.13;;;32.10;36.70;;;;;;5063662;28;20446;-86
2022/06/25 10:15:54;;;;;;;2.40;2.23;;;32.00;35.60;;;;;;5044499;28;20473;-86
2022/06/25 10:18:25;;;;;;;3.27;2.23;;;31.70;36.20;;;;;;5065653;28;21106;-86
2022/06/25 10:20:52;;;;;;;2.80;2.60;;;31.30;36.20;;;;;;5032972;28;20477;-87
2022/06/25 10:23:22;;;;;;;2.80;2.20;;;31.00;38.00;;;;;;5047709;28;20542;-87
2022/06/25 10:25:49;;;;;;;2.43;2.23;;;30.70;36.80;;;;;;5032184;28;20458;-85
2022/06/25 10:28:24;;;;;;;2.47;2.30;;;30.70;37.50;;;;;;5048634;28;20512;-86
2022/06/25 10:30:52;;;;;;;2.37;2.13;;;30.90;36.70;;;;;;5055219;28;20483;-86
2022/06/25 10:33:21;;;;;;;2.43;2.23;;;31.20;34.80;;;;;;5048640;28;20557;-88
2022/06/25 10:35:51;;;;;;;2.83;2.33;;;31.60;36.60;;;;;;5049406;28;20512;-85
2022/06/25 10:38:21;;;;;;;2.43;2.13;;;31.80;35.20;;;;;;5048507;28;20445;-85
2022/06/25 10:40:55;;;;;;;2.70;2.20;;;31.90;35.70;;;;;;5048343;28;20932;-85
2022/06/25 10:43:39;;;;;;;2.43;1.90;;;32.00;33.00;;;;;;5046719;28;20445;-88
2022/06/25 10:46:41;;;;;;;1.90;1.80;;;32.00;33.30;;;;;;5045039;28;20452;-86
2022/06/25 10:49:10;;;;;;;4.43;2.23;;;32.00;33.70;;;;;;4986544;28;20517;-85
2022/06/25 10:51:43;;;;;;;2.10;2.00;;;32.20;33.80;;;;;;5003614;28;21014;-88
2022/06/25 10:54:35;;;;;;;2.83;1.93;;;31.90;34.10;;;;;;5022473;28;20817;-86
2022/06/25 10:57:04;;;;;;;2.00;1.90;;;31.60;33.50;;;;;;5037393;28;20457;-85
2022/06/25 10:59:47;;;;;;;3.07;2.03;;;31.40;34.90;;;;;;5044693;28;20450;-87
2022/06/25 11:02:18;;;;;;;3.30;2.10;;;31.80;35.10;;;;;;5054886;28;20472;-85
2022/06/25 11:04:49;;;;;;;2.30;2.20;;;32.20;34.30;;;;;;5062904;28;20445;-87
2022/06/25 11:07:21;;;;;;;2.27;2.10;;;32.40;32.80;;;;;;5045365;28;20510;-85
2022/06/25 11:09:56;;;;;;;3.00;2.10;;;32.50;32.40;;;;;;5061557;28;20852;-85
2022/06/25 11:12:24;;;;;;;2.87;2.10;;;32.50;32.30;;;;;;5047472;28;20479;-87
2022/06/25 11:14:58;;;;;;;3.60;2.00;;;32.60;31.90;;;;;;5040155;28;20461;-85
2022/06/25 11:17:25;;;;;;;2.33;2.13;;;32.70;32.00;;;;;;5043296;28;20447;-87
2022/06/25 11:19:52;;;;;;;1.80;1.67;;;32.50;31.30;;;;;;5044909;28;20464;-86
2022/06/25 11:22:20;;;;;;;2.73;1.70;;;32.00;31.40;;;;;;5044495;28;20484;-85
2022/06/25 11:30:14;;;;;;;2.83;1.90;;;31.40;34.40;;;;;;5043841;28;21324;-87
2022/06/25 11:32:46;;;;;;;3.77;1.90;;;31.40;34.10;;;;;;5044156;28;20472;-87
2022/06/25 11:35:13;;;;;;;2.53;2.33;;;31.30;34.60;;;;;;5042230;28;20519;-88
2022/06/25 11:37:41;;;;;;;4.50;2.10;;;31.40;34.00;;;;;;5044935;28;20453;-88
2022/06/25 11:40:15;;;;;;;2.20;2.00;;;31.20;33.30;;;;;;5045516;28;20467;-84
2022/06/25 11:42:42;;;;;;;2.77;2.50;;;31.30;33.60;;;;;;5061504;28;20745;-84
2022/06/25 11:45:10;;;;;;;1.80;1.70;;;31.20;33.40;;;;;;5042892;28;20453;-88
2022/06/25 11:47:38;;;;;;;2.07;1.97;;;31.30;33.80;;;;;;5045342;28;20449;-85
2022/06/25 11:50:09;;;;;;;2.17;1.97;;;31.30;34.00;;;;;;5041676;28;20442;-86
2022/06/25 11:52:42;;;;;;;3.10;2.00;;;31.80;33.70;;;;;;5042596;28;20477;-84
2022/06/25 11:55:11;;;;;;;4.73;1.93;;;32.20;33.10;;;;;;5042619;28;20468;-86
2022/06/25 11:57:42;;;;;;;2.40;2.20;;;32.10;32.80;;;;;;5045130;28;20460;-90
2022/06/25 12:00:13;;;;;;;4.33;2.43;;;32.20;32.80;;;;;;5043288;28;20504;-85
2022/06/25 12:02:41;;;;;;;1.90;1.80;;;32.40;32.60;;;;;;5042560;28;20473;-84
2022/06/25 12:05:09;;;;;;;2.50;1.87;;;32.60;31.30;;;;;;5042819;28;20455;-86
2022/06/25 12:07:36;;;;;;;2.00;1.90;;;32.90;31.80;;;;;;5036207;28;20456;-84
2022/06/25 12:10:11;;;;;;;2.10;1.90;;;33.10;31.10;;;;;;5044568;28;20454;-86
2022/06/25 12:12:39;;;;;;;2.80;1.80;;;33.10;30.20;;;;;;5045939;28;20460;-88
2022/06/25 12:15:07;;;;;;;2.13;2.03;;;33.00;30.70;;;;;;5043527;28;20453;-85
2022/06/25 12:17:35;;;;;;;2.73;1.60;;;32.90;30.70;;;;;;5047880;28;20460;-84
2022/06/25 12:20:08;;;;;;;2.53;2.07;;;32.70;31.80;;;;;;5048205;28;20465;-84
2022/06/25 12:22:38;;;;;;;2.43;1.90;;;32.30;32.60;;;;;;5049201;28;20484;-85
2022/06/25 12:25:07;;;;;;;3.13;2.00;;;32.30;32.30;;;;;;5051979;28;20445;-85
2022/06/25 12:27:45;;;;;;;2.00;1.60;;;32.40;31.20;;;;;;5052513;28;20436;-85
2022/06/25 12:30:12;;;;;;;1.93;1.73;;;32.70;31.70;;;;;;5048791;28;20477;-85
2022/06/25 12:32:42;;;;;;;2.10;1.90;;;33.30;31.40;;;;;;5048062;28;20996;-84
2022/06/25 12:35:19;;;;;;;2.00;1.90;;;33.40;30.00;;;;;;5048484;28;20509;-85
2022/06/25 12:38:01;;;;;;;1.97;1.87;;;33.60;30.40;;;;;;5050431;28;20450;-87
2022/06/25 12:40:30;;;;;;;6.00;1.90;;;33.90;30.50;;;;;;5050451;28;20495;-85
2022/06/25 12:42:58;;;;;;;2.00;1.90;;;34.00;29.90;;;;;;5058143;28;20480;-86
2022/06/25 12:45:26;;;;;;;1.83;1.73;;;34.30;30.00;;;;;;5050117;28;20463;-85
2022/06/25 12:47:53;;;;;;;2.27;1.67;;;34.30;29.20;;;;;;5051961;28;20573;-87
2022/06/25 12:50:24;;;;;;;2.40;1.77;;;34.00;29.50;;;;;;5034353;28;20456;-85
2022/06/25 12:52:51;;;;;;;1.90;1.80;;;33.70;30.00;;;;;;5050297;28;20441;-86
2022/06/25 12:55:20;;;;;;;4.23;1.90;;;33.70;30.00;;;;;;5045904;28;20970;-88
2022/06/25 12:57:49;;;;;;;1.63;1.53;;;33.60;29.80;;;;;;5048832;28;20452;-85
2022/06/25 13:00:21;;;;;;;2.00;1.80;;;33.80;29.90;;;;;;5048450;28;20465;-86
2022/06/25 13:02:48;;;;;;;2.00;1.57;;;33.80;30.00;;;;;;5058197;28;20489;-85
2022/06/25 13:05:15;;;;;;;3.97;2.07;;;33.80;29.00;;;;;;5049582;28;20453;-87
2022/06/25 13:07:42;;;;;;;1.87;1.77;;;33.70;29.30;;;;;;5058698;28;20462;-85
2022/06/25 13:10:10;;;;;;;2.40;1.80;;;33.30;29.90;;;;;;5064024;28;20453;-88
2022/06/25 13:12:37;;;;;;;1.83;1.73;;;33.40;30.20;;;;;;5051435;28;21186;-85
2022/06/25 13:15:07;;;;;;;1.90;1.63;;;33.70;29.00;;;;;;5049693;28;20444;-85
2022/06/25 13:17:34;;;;;;;2.27;2.07;;;33.90;28.40;;;;;;5040970;28;20961;-87
2022/06/25 13:20:01;;;;;;;2.30;1.77;;;34.10;28.80;;;;;;5050208;28;20458;-86
2022/06/25 13:22:29;;;;;;;3.20;1.40;;;34.30;29.30;;;;;;5044982;28;20478;-86